createdAt,value
2023-01-12T00:02:09.113Z,95489.66
2023-01-12T00:07:12.960Z,95515.94
2023-01-12T00:12:15.045Z,95495.75
2023-01-12T00:17:18.637Z,95520.09
2023-01-12T00:22:20.790Z,95532.25
2023-01-12T00:27:22.867Z,95509.34
2023-01-12T00:32:24.806Z,95502.78
2023-01-12T00:37:27.555Z,95505.97
2023-01-12T00:42:48.034Z,95511.81
2023-01-12T00:47:50.651Z,95489.00
2023-01-12T00:52:52.755Z,95506.69
2023-01-12T00:57:54.806Z,95493.69
2023-01-12T01:02:56.739Z,95485.94
2023-01-12T01:07:58.751Z,95467.56
2023-01-12T01:13:00.770Z,95481.41
2023-01-12T01:18:02.802Z,95474.13
2023-01-12T01:23:04.808Z,95474.88
2023-01-12T01:28:06.883Z,95470.88
2023-01-12T01:33:08.950Z,95460.34
2023-01-12T01:38:10.897Z,95442.31
2023-01-12T01:43:17.752Z,95423.88
2023-01-12T01:48:19.927Z,95434.03
2023-01-12T01:53:23.940Z,95457.59
2023-01-12T01:58:39.199Z,95437.84
2023-01-12T02:03:41.643Z,95431.00
2023-01-12T02:08:54.091Z,95449.56
2023-01-12T02:14:14.559Z,95420.06
2023-01-12T02:19:22.859Z,95432.22
2023-01-12T02:24:46.832Z,95419.16
2023-01-12T02:30:16.814Z,95447.00
2023-01-12T02:35:26.452Z,95456.38
2023-01-12T02:40:48.756Z,95438.31
2023-01-12T02:46:12.905Z,95405.63
2023-01-12T02:51:21.385Z,95397.16
2023-01-12T02:56:34.808Z,95409.81
2023-01-12T03:01:37.600Z,95424.81
2023-01-12T03:06:47.060Z,95391.84
2023-01-12T03:11:50.909Z,95427.25
2023-01-12T03:16:55.128Z,95422.25
2023-01-12T03:22:03.973Z,95374.91
2023-01-12T03:27:15.009Z,95426.94
2023-01-12T03:32:18.276Z,95421.94
2023-01-12T03:37:36.124Z,95401.63
2023-01-12T03:42:49.452Z,95434.16
2023-01-12T03:47:57.997Z,95407.72
2023-01-12T03:53:02.156Z,95403.13
2023-01-12T03:58:04.788Z,95417.28
2023-01-12T04:03:12.026Z,95412.44
2023-01-12T04:08:15.150Z,95407.91
2023-01-12T04:13:17.076Z,95411.00
2023-01-12T04:18:19.023Z,95398.88
2023-01-12T04:23:20.994Z,95411.97
2023-01-12T04:28:23.195Z,95384.59
2023-01-12T04:33:25.172Z,95418.97
2023-01-12T04:38:27.214Z,95400.97
2023-01-12T04:43:29.277Z,95423.22
2023-01-12T04:48:31.298Z,95402.16
2023-01-12T04:53:33.278Z,95414.25
2023-01-12T04:58:35.839Z,95423.69
2023-01-12T05:03:38.325Z,95415.94
2023-01-12T05:08:58.789Z,95430.78
2023-01-12T05:14:01.214Z,95403.59
2023-01-12T05:19:03.327Z,95408.84
2023-01-12T05:24:05.514Z,95446.59
2023-01-12T05:29:09.181Z,95456.06
2023-01-12T05:34:11.195Z,95459.75
2023-01-12T05:39:13.251Z,95450.63
2023-01-12T05:44:15.393Z,95474.47
2023-01-12T05:49:17.423Z,95462.38
2023-01-12T05:54:19.521Z,95426.78
2023-01-12T05:59:21.676Z,95453.69
2023-01-12T06:04:23.929Z,95419.38
2023-01-12T06:09:25.950Z,95425.06
2023-01-12T06:14:28.068Z,95443.63
2023-01-12T06:19:30.157Z,95444.44
2023-01-12T06:24:32.141Z,95406.53
2023-01-12T06:29:34.107Z,95425.44
2023-01-12T06:34:36.455Z,95439.88
2023-01-12T06:39:38.363Z,95402.63
2023-01-12T06:44:40.529Z,95423.59
2023-01-12T06:49:42.535Z,95419.78
2023-01-12T06:54:44.608Z,95426.56
2023-01-12T06:59:47.085Z,95454.69
2023-01-12T07:04:49.071Z,95425.00
2023-01-12T07:09:51.030Z,95421.25
2023-01-12T07:14:53.013Z,95429.66
2023-01-12T07:19:55.141Z,95395.50
2023-01-12T07:24:57.919Z,95448.09
2023-01-12T07:29:59.954Z,95429.63
2023-01-12T07:35:01.989Z,95477.25
2023-01-12T07:40:04.218Z,95470.19
2023-01-12T07:45:06.952Z,95465.41
2023-01-12T07:50:10.728Z,95478.84
2023-01-12T07:55:14.156Z,95492.56
2023-01-12T08:00:16.661Z,95490.25
2023-01-12T08:05:22.843Z,95483.84
2023-01-12T08:10:24.912Z,95490.41
2023-01-12T08:15:27.346Z,95497.13
2023-01-12T08:20:33.856Z,95477.06
2023-01-12T08:25:38.716Z,95484.25
2023-01-12T08:30:40.871Z,95505.66
2023-01-12T08:35:43.993Z,95496.84
2023-01-12T08:41:04.733Z,95508.47
2023-01-12T08:46:09.730Z,95520.66
2023-01-12T08:51:11.847Z,95484.22
2023-01-12T08:56:14.952Z,95523.72
2023-01-12T09:01:17.474Z,95521.66
2023-01-12T09:06:25.834Z,95489.91
2023-01-12T09:11:29.529Z,95525.31
2023-01-12T09:16:32.797Z,95519.56
2023-01-12T09:21:38.092Z,95544.31
2023-01-12T09:26:42.116Z,95535.25
2023-01-12T09:31:45.719Z,95532.66
2023-01-12T09:36:49.098Z,95530.59
2023-01-12T09:42:10.639Z,95558.13
2023-01-12T09:47:25.996Z,95536.59
2023-01-12T09:52:34.643Z,95551.94
2023-01-12T09:57:45.765Z,95550.78
2023-01-12T10:02:55.261Z,95546.50
2023-01-12T10:07:57.552Z,95543.56
2023-01-12T10:13:05.019Z,95538.41
2023-01-12T10:18:29.641Z,95539.41
2023-01-12T10:23:31.788Z,95519.09
2023-01-12T10:28:36.209Z,95535.75
2023-01-12T10:33:38.148Z,95530.56
2023-01-12T10:39:01.080Z,95557.63
2023-01-12T10:44:03.150Z,95517.25
2023-01-12T10:49:38.495Z,95523.44
2023-01-12T10:54:41.621Z,95488.81
2023-01-12T10:59:50.483Z,95508.59
2023-01-12T11:04:53.870Z,95505.22
2023-01-12T11:09:58.617Z,95489.06
2023-01-12T11:15:02.361Z,95499.97
2023-01-12T11:20:10.065Z,95493.97
2023-01-12T11:25:25.616Z,95469.28
2023-01-12T11:30:48.181Z,95474.50
2023-01-12T11:36:11.081Z,95441.41
2023-01-12T11:41:38.946Z,95461.75
2023-01-12T11:46:44.700Z,95461.38
2023-01-12T11:51:51.574Z,95438.25
2023-01-12T11:57:21.279Z,95431.16
2023-01-12T12:02:42.584Z,95430.53
2023-01-12T12:07:56.626Z,95414.81
2023-01-12T12:13:33.707Z,95388.97
2023-01-12T12:18:57.498Z,95394.00
2023-01-12T12:24:12.440Z,95347.69
2023-01-12T12:29:37.400Z,95382.91
2023-01-12T12:35:00.641Z,95364.47
2023-01-12T12:40:59.962Z,95366.91
2023-01-12T12:46:18.305Z,95356.47
2023-01-12T12:51:20.877Z,95306.25
2023-01-12T12:56:24.518Z,95318.88
2023-01-12T13:01:27.541Z,95300.94
2023-01-12T13:07:01.878Z,95302.69
2023-01-12T13:12:03.939Z,95274.84
2023-01-12T13:17:26.110Z,95277.94
2023-01-12T13:22:47.442Z,95257.28
2023-01-12T13:27:55.734Z,95257.31
2023-01-12T13:33:26.874Z,95246.81
2023-01-12T13:38:39.046Z,95246.59
2023-01-12T13:43:55.470Z,95240.81
2023-01-12T13:48:57.691Z,95225.44
2023-01-12T13:54:04.473Z,95223.69
2023-01-12T13:59:17.884Z,95194.72
2023-01-12T14:04:38.849Z,95210.66
2023-01-12T14:09:46.477Z,95215.22
2023-01-12T14:15:28.691Z,95216.88
2023-01-12T14:20:31.555Z,95223.78
2023-01-12T14:25:33.532Z,95223.84
2023-01-12T14:30:36.629Z,95214.09
2023-01-12T14:35:47.484Z,95215.06
2023-01-12T14:40:59.859Z,95209.66
2023-01-12T14:46:21.550Z,95212.13
2023-01-12T14:51:37.670Z,95202.72
2023-01-12T14:56:43.627Z,95201.94
2023-01-12T15:01:45.965Z,95194.16
2023-01-12T15:06:59.200Z,95202.34
2023-01-12T15:12:24.862Z,95201.06
2023-01-12T15:17:45.335Z,95182.81
2023-01-12T15:23:05.821Z,95199.19
2023-01-12T15:28:08.363Z,95197.81
2023-01-12T15:33:10.221Z,95196.13
2023-01-12T15:38:16.849Z,95212.22
2023-01-12T15:43:19.233Z,95198.56
2023-01-12T15:48:21.263Z,95201.72
2023-01-12T15:53:25.469Z,95195.69
2023-01-12T15:58:27.674Z,95186.13
2023-01-12T16:04:00.525Z,95187.75
2023-01-12T16:08:51.821Z,95167.84
2023-01-12T16:13:54.808Z,95190.00
2023-01-12T16:18:58.747Z,95183.91
2023-01-12T16:24:01.245Z,95185.63
2023-01-12T16:29:03.424Z,95177.44
2023-01-12T16:34:05.478Z,95178.78
2023-01-12T16:39:07.637Z,95189.38
2023-01-12T16:44:09.860Z,95191.59
2023-01-12T16:49:12.068Z,95195.13
2023-01-12T16:54:14.034Z,95193.31
2023-01-12T16:59:15.925Z,95201.50
2023-01-12T17:04:20.049Z,95184.91
2023-01-12T17:09:22.213Z,95188.13
2023-01-12T17:14:25.067Z,95168.41
2023-01-12T17:19:27.754Z,95196.47
2023-01-12T17:24:31.427Z,95201.59
2023-01-12T17:29:33.917Z,95125.66
2023-01-12T17:34:38.869Z,95186.00
2023-01-12T17:39:42.682Z,95202.69
2023-01-12T17:44:44.707Z,95196.94
2023-01-12T17:49:48.070Z,95208.81
2023-01-12T17:54:50.341Z,95205.72
2023-01-12T17:59:52.448Z,95192.03
2023-01-12T18:04:54.533Z,95216.63
2023-01-12T18:09:56.538Z,95188.41
2023-01-12T18:14:59.076Z,95202.75
2023-01-12T18:20:01.052Z,95214.16
2023-01-12T18:25:03.034Z,95205.19
2023-01-12T18:30:05.567Z,95226.97
2023-01-12T18:35:07.766Z,95196.34
2023-01-12T18:40:10.357Z,95231.88
2023-01-12T18:45:12.350Z,95203.59
2023-01-12T18:50:32.837Z,95221.97
2023-01-12T18:55:37.850Z,95244.69
2023-01-12T19:00:40.108Z,95223.81
2023-01-12T19:06:04.984Z,95219.63
2023-01-12T19:11:11.835Z,95238.94
2023-01-12T19:16:33.313Z,95237.66
2023-01-12T19:21:54.176Z,95224.94
2023-01-12T19:27:14.936Z,95209.97
2023-01-12T19:32:17.733Z,95233.06
2023-01-12T19:37:20.279Z,95231.72
2023-01-12T19:42:40.642Z,95246.78
2023-01-12T19:47:42.902Z,95241.22
2023-01-12T19:52:45.988Z,95230.47
2023-01-12T19:57:47.891Z,95224.06
2023-01-12T20:02:49.827Z,95222.19
2023-01-12T20:07:54.561Z,95187.56
2023-01-12T20:12:56.586Z,95205.81
2023-01-12T20:18:00.202Z,95198.97
2023-01-12T20:23:02.741Z,95238.66
2023-01-12T20:28:04.716Z,95209.56
2023-01-12T20:33:07.025Z,95205.91
2023-01-12T20:38:13.500Z,95220.19
2023-01-12T20:43:15.911Z,95246.69
2023-01-12T20:48:18.035Z,95252.00
2023-01-12T20:53:20.544Z,95259.16
2023-01-12T20:58:22.554Z,95262.63
2023-01-12T21:03:24.402Z,95241.97
2023-01-12T21:08:26.367Z,95249.66
2023-01-12T21:13:28.326Z,95233.78
2023-01-12T21:18:31.536Z,95220.31
2023-01-12T21:23:33.587Z,95226.63
2023-01-12T21:28:38.193Z,95223.22
2023-01-12T21:33:40.124Z,95204.44
2023-01-12T21:38:42.520Z,95242.25
2023-01-12T21:43:49.470Z,95233.25
2023-01-12T21:48:51.420Z,95234.63
2023-01-12T21:53:56.070Z,95206.81
2023-01-12T21:58:58.711Z,95234.63
2023-01-12T22:04:00.875Z,95218.72
2023-01-12T22:09:02.844Z,95233.81
2023-01-12T22:14:04.857Z,95246.75
2023-01-12T22:19:07.214Z,95242.53
2023-01-12T22:24:10.621Z,95231.69
2023-01-12T22:29:13.085Z,95194.94
2023-01-12T22:34:15.175Z,95209.19
2023-01-12T22:39:17.205Z,95222.19
2023-01-12T22:44:19.718Z,95210.53
2023-01-12T22:49:22.054Z,95228.00
2023-01-12T22:54:24.271Z,95224.03
2023-01-12T22:59:26.315Z,95220.84
2023-01-12T23:04:28.181Z,95197.31
2023-01-12T23:09:30.042Z,95195.44
2023-01-12T23:14:31.981Z,95220.59
2023-01-12T23:19:34.323Z,95187.25
2023-01-12T23:24:38.441Z,95197.31
2023-01-12T23:29:40.570Z,95168.72
2023-01-12T23:34:42.564Z,95160.00
2023-01-12T23:39:44.497Z,95174.78
2023-01-12T23:44:47.189Z,95155.75
2023-01-12T23:49:49.233Z,95163.69
2023-01-12T23:54:53.402Z,95194.91
2023-01-12T23:59:55.586Z,95183.50
